createdAt,value
2023-03-13T00:00:05.907Z,11.40
2023-03-13T00:02:38.662Z,11.20
2023-03-13T00:05:07.185Z,11.50
2023-03-13T00:07:33.787Z,10.50
2023-03-13T00:10:00.258Z,11.40
2023-03-13T00:12:26.914Z,12.20
2023-03-13T00:14:53.386Z,11.40
2023-03-13T00:17:20.009Z,13.80
2023-03-13T00:19:46.703Z,13.70
2023-03-13T00:22:13.314Z,10.10
2023-03-13T00:24:39.909Z,11.70
2023-03-13T00:27:06.452Z,9.70
2023-03-13T00:29:33.480Z,11.00
2023-03-13T00:32:00.924Z,14.00
2023-03-13T00:34:27.627Z,11.90
2023-03-13T00:36:55.600Z,11.80
2023-03-13T00:39:22.253Z,11.30
2023-03-13T00:41:51.797Z,12.30
2023-03-13T00:44:18.384Z,12.70
2023-03-13T00:46:44.813Z,14.00
2023-03-13T00:49:11.335Z,11.50
2023-03-13T00:51:39.052Z,12.90
2023-03-13T00:54:05.586Z,12.00
2023-03-13T00:56:34.066Z,13.20
2023-03-13T00:59:01.275Z,12.90
2023-03-13T01:01:30.423Z,13.70
2023-03-13T01:04:06.271Z,13.60
2023-03-13T01:06:35.073Z,12.70
2023-03-13T01:09:03.549Z,13.30
2023-03-13T01:11:31.831Z,11.70
2023-03-13T01:13:59.655Z,13.00
2023-03-13T01:16:27.115Z,13.00
2023-03-13T01:18:55.287Z,12.90
2023-03-13T01:21:23.376Z,16.40
2023-03-13T01:23:51.868Z,13.70
2023-03-13T01:26:18.573Z,13.20
2023-03-13T01:28:45.242Z,14.80
2023-03-13T01:31:19.795Z,13.40
2023-03-13T01:33:47.918Z,13.30
2023-03-13T01:36:15.078Z,12.40
2023-03-13T01:38:41.895Z,15.00
2023-03-13T01:41:11.557Z,12.40
2023-03-13T01:43:38.213Z,12.60
2023-03-13T01:46:09.582Z,15.10
2023-03-13T01:48:42.097Z,12.70
2023-03-13T01:51:13.996Z,14.40
2023-03-13T01:53:43.219Z,13.10
2023-03-13T01:56:13.112Z,14.00
2023-03-13T01:58:39.902Z,15.20
2023-03-13T02:01:06.415Z,16.00
2023-03-13T02:03:34.377Z,13.90
2023-03-13T02:06:06.034Z,15.20
2023-03-13T02:08:35.308Z,14.00
2023-03-13T02:11:05.798Z,15.30
2023-03-13T02:13:32.563Z,14.10
2023-03-13T02:15:59.423Z,14.50
2023-03-13T02:18:26.089Z,12.40
2023-03-13T02:20:55.504Z,13.40
2023-03-13T02:23:24.614Z,12.40
2023-03-13T02:25:53.378Z,12.90
2023-03-13T02:28:22.401Z,15.20
2023-03-13T02:30:50.609Z,12.90
2023-03-13T02:33:18.006Z,12.30
2023-03-13T02:35:45.396Z,13.80
2023-03-13T02:38:15.692Z,11.20
2023-03-13T02:40:44.786Z,11.40
2023-03-13T02:43:16.544Z,13.50
2023-03-13T02:45:43.050Z,14.90
2023-03-13T02:48:09.651Z,12.70
2023-03-13T02:50:37.604Z,13.50
2023-03-13T02:53:07.518Z,11.60
2023-03-13T02:55:40.289Z,11.80
2023-03-13T02:58:10.407Z,11.90
2023-03-13T03:00:37.095Z,10.50
2023-03-13T03:03:03.670Z,12.30
2023-03-13T03:05:30.177Z,11.80
2023-03-13T03:07:56.707Z,10.60
2023-03-13T03:10:23.239Z,9.40
2023-03-13T03:12:49.792Z,9.70
2023-03-13T03:15:16.470Z,9.60
2023-03-13T03:17:43.041Z,10.30
2023-03-13T03:20:11.564Z,9.70
2023-03-13T03:22:40.139Z,8.40
2023-03-13T03:27:51.015Z,9.30
2023-03-13T03:30:18.995Z,9.30
2023-03-13T03:32:47.077Z,12.00
2023-03-13T03:35:15.070Z,8.70
2023-03-13T03:37:42.997Z,8.70
2023-03-13T03:40:11.817Z,10.80
2023-03-13T03:42:39.756Z,7.20
2023-03-13T03:45:08.065Z,7.30
2023-03-13T03:47:36.032Z,8.90
2023-03-13T03:50:04.618Z,7.10
2023-03-13T03:52:32.543Z,7.60
2023-03-13T03:55:00.437Z,6.80
2023-03-13T03:57:28.382Z,9.30
2023-03-13T03:59:56.265Z,7.10
2023-03-13T04:02:24.202Z,7.40
2023-03-13T04:04:52.702Z,5.40
2023-03-13T04:07:20.672Z,8.30
2023-03-13T04:09:48.640Z,7.60
2023-03-13T04:12:16.514Z,9.90
2023-03-13T04:14:44.509Z,8.50
2023-03-13T04:17:12.665Z,10.10
2023-03-13T04:19:40.559Z,9.60
2023-03-13T04:22:08.446Z,7.80
2023-03-13T04:24:36.325Z,10.80
2023-03-13T04:27:06.640Z,8.80
2023-03-13T04:29:35.267Z,14.50
2023-03-13T04:32:03.175Z,13.50
2023-03-13T04:34:31.242Z,12.20
2023-03-13T04:36:59.230Z,12.60
2023-03-13T04:39:27.199Z,14.00
2023-03-13T04:41:55.845Z,15.60
2023-03-13T04:44:43.354Z,16.70
2023-03-13T04:47:11.508Z,15.60
2023-03-13T04:49:39.432Z,15.80
2023-03-13T04:52:07.620Z,13.40
2023-03-13T04:54:35.591Z,10.80
2023-03-13T04:57:03.477Z,10.30
2023-03-13T04:59:31.676Z,9.40
2023-03-13T05:01:59.591Z,10.70
2023-03-13T05:04:27.665Z,10.20
2023-03-13T05:06:55.797Z,12.00
2023-03-13T05:09:23.803Z,10.40
2023-03-13T05:11:51.841Z,10.50
2023-03-13T05:14:20.054Z,11.60
2023-03-13T05:16:48.190Z,10.50
2023-03-13T05:19:16.196Z,9.70
2023-03-13T05:21:44.706Z,10.40
2023-03-13T05:24:12.679Z,11.20
2023-03-13T05:26:40.679Z,9.00
2023-03-13T05:29:08.545Z,12.80
2023-03-13T05:31:36.441Z,14.40
2023-03-13T05:34:04.289Z,14.00
2023-03-13T05:36:32.094Z,11.90
2023-03-13T05:45:17.682Z,13.70
2023-03-13T05:47:45.569Z,10.80
2023-03-13T05:50:13.714Z,14.10
2023-03-13T05:52:41.610Z,12.20
2023-03-13T05:55:09.667Z,11.80
2023-03-13T05:57:37.722Z,11.10
2023-03-13T06:00:05.974Z,11.50
2023-03-13T06:02:34.033Z,12.20
2023-03-13T06:05:02.041Z,13.10
2023-03-13T06:07:30.065Z,15.00
2023-03-13T06:09:57.889Z,13.60
2023-03-13T06:12:25.966Z,15.30
2023-03-13T06:14:53.900Z,13.50
2023-03-13T06:17:21.875Z,11.30
2023-03-13T06:19:49.640Z,12.30
2023-03-13T06:22:17.731Z,15.60
2023-03-13T06:24:46.930Z,12.20
2023-03-13T06:27:15.101Z,16.10
2023-03-13T06:29:43.356Z,12.10
2023-03-13T06:32:11.255Z,13.40
2023-03-13T06:34:39.237Z,12.70
2023-03-13T06:37:07.138Z,11.20
2023-03-13T06:39:35.060Z,11.30
2023-03-13T06:42:02.889Z,15.10
2023-03-13T06:44:31.007Z,15.60
2023-03-13T06:46:59.141Z,10.80
2023-03-13T06:49:26.995Z,11.90
2023-03-13T06:51:57.458Z,12.40
2023-03-13T06:54:25.586Z,11.90
2023-03-13T06:56:53.389Z,9.60
2023-03-13T06:59:21.358Z,15.00
2023-03-13T07:01:49.202Z,10.50
2023-03-13T07:04:28.633Z,12.80
2023-03-13T07:06:57.610Z,15.60
2023-03-13T07:09:25.524Z,18.30
2023-03-13T07:11:53.372Z,16.30
2023-03-13T07:14:22.437Z,13.00
2023-03-13T07:16:50.381Z,17.10
2023-03-13T07:19:18.341Z,12.40
2023-03-13T07:21:46.993Z,11.60
2023-03-13T07:24:14.834Z,14.80
2023-03-13T07:26:54.153Z,12.70
2023-03-13T07:29:29.888Z,14.70
2023-03-13T07:31:57.699Z,13.20
2023-03-13T07:34:25.485Z,13.80
2023-03-13T07:36:53.389Z,12.40
2023-03-13T07:39:21.176Z,14.70
2023-03-13T07:41:49.045Z,12.10
2023-03-13T07:46:02.556Z,10.80
2023-03-13T07:48:31.740Z,15.50
2023-03-13T07:51:00.547Z,13.60
2023-03-13T07:53:29.162Z,12.80
2023-03-13T07:56:01.632Z,12.20
2023-03-13T07:58:31.017Z,17.10
2023-03-13T08:00:58.946Z,14.50
2023-03-13T08:03:26.994Z,14.00
2023-03-13T08:05:59.237Z,17.40
2023-03-13T08:08:27.493Z,14.70
2023-03-13T08:11:02.005Z,13.70
2023-03-13T08:13:30.574Z,20.60
2023-03-13T08:16:04.341Z,17.00
2023-03-13T08:18:35.123Z,18.30
2023-03-13T08:21:08.865Z,16.00
2023-03-13T08:23:36.889Z,14.70
2023-03-13T08:26:06.643Z,12.50
2023-03-13T08:28:35.184Z,16.50
2023-03-13T08:31:12.130Z,19.50
2023-03-13T08:33:40.743Z,10.70
2023-03-13T08:36:19.721Z,15.70
2023-03-13T08:38:49.130Z,10.40
2023-03-13T08:41:18.206Z,13.40
2023-03-13T08:43:47.568Z,14.70
2023-03-13T08:46:18.350Z,11.50
2023-03-13T08:48:51.181Z,11.60
2023-03-13T08:51:20.113Z,12.80
2023-03-13T08:53:48.052Z,14.20
2023-03-13T08:56:17.070Z,16.70
2023-03-13T08:58:45.153Z,15.40
2023-03-13T09:01:14.313Z,18.10
2023-03-13T09:03:42.627Z,14.00
2023-03-13T09:06:10.973Z,16.30
2023-03-13T09:08:40.198Z,18.00
2023-03-13T09:11:09.348Z,19.60
2023-03-13T09:13:39.171Z,14.70
2023-03-13T09:16:08.565Z,14.30
2023-03-13T09:18:36.926Z,11.10
2023-03-13T09:21:07.105Z,18.00
2023-03-13T09:23:35.510Z,17.70
2023-03-13T09:26:03.981Z,13.00
2023-03-13T09:28:31.938Z,20.10
2023-03-13T09:31:32.173Z,15.70
2023-03-13T09:34:00.478Z,11.30
2023-03-13T09:36:28.688Z,14.60
2023-03-13T09:38:58.024Z,16.40
2023-03-13T09:41:44.898Z,14.50
2023-03-13T09:44:29.962Z,19.10
2023-03-13T09:47:06.954Z,17.20
2023-03-13T09:50:07.117Z,18.10
2023-03-13T09:52:41.640Z,19.20
2023-03-13T09:55:21.619Z,18.30
2023-03-13T09:57:58.578Z,17.40
2023-03-13T10:00:29.878Z,15.70
2023-03-13T10:03:06.593Z,19.90
2023-03-13T10:05:35.588Z,18.10
2023-03-13T10:08:09.291Z,19.60
2023-03-13T10:10:41.881Z,17.10
2023-03-13T10:13:21.452Z,17.10
2023-03-13T10:15:52.226Z,17.30
2023-03-13T10:18:21.915Z,20.30
2023-03-13T10:20:52.051Z,14.80
2023-03-13T10:23:22.594Z,14.90
2023-03-13T10:25:50.437Z,21.00
2023-03-13T10:28:23.031Z,25.70
2023-03-13T10:30:54.447Z,15.80
2023-03-13T10:33:24.666Z,16.10
2023-03-13T10:36:07.088Z,19.40
2023-03-13T10:38:46.858Z,17.40
2023-03-13T10:41:23.181Z,14.50
2023-03-13T10:43:52.553Z,23.00
2023-03-13T10:46:25.386Z,20.60
2023-03-13T10:49:06.816Z,15.90
2023-03-13T10:51:45.324Z,16.50
2023-03-13T10:54:15.148Z,21.40
2023-03-13T10:57:06.396Z,22.30
2023-03-13T10:59:55.629Z,16.90
2023-03-13T11:02:38.866Z,17.50
2023-03-13T11:05:26.293Z,21.80
2023-03-13T11:07:54.570Z,15.00
2023-03-13T11:10:26.899Z,16.50
2023-03-13T11:12:56.788Z,16.60
2023-03-13T11:15:42.450Z,21.70
2023-03-13T11:18:25.019Z,18.60
2023-03-13T11:20:53.897Z,13.80
2023-03-13T11:23:34.668Z,16.00
2023-03-13T11:26:21.096Z,19.50
2023-03-13T11:28:58.276Z,16.70
2023-03-13T11:31:38.847Z,13.60
2023-03-13T11:34:36.288Z,16.00
2023-03-13T11:37:11.931Z,15.90
2023-03-13T11:40:00.096Z,12.90
2023-03-13T11:42:37.332Z,16.50
2023-03-13T11:45:14.335Z,14.60
2023-03-13T11:47:56.897Z,13.40
2023-03-13T11:50:35.760Z,13.90
2023-03-13T11:53:23.922Z,14.30
2023-03-13T12:02:18.473Z,10.50
2023-03-13T12:04:55.052Z,10.20
2023-03-13T12:07:35.913Z,12.40
2023-03-13T12:10:06.757Z,9.00
2023-03-13T12:12:48.495Z,9.30
2023-03-13T12:15:22.849Z,9.80
2023-03-13T12:18:03.166Z,14.40
2023-03-13T12:20:44.709Z,11.00
2023-03-13T12:23:31.302Z,10.90
2023-03-13T12:26:11.216Z,6.90
2023-03-13T12:29:01.127Z,11.40
2023-03-13T12:31:35.732Z,12.20
2023-03-13T12:34:11.001Z,9.60
2023-03-13T12:36:42.227Z,12.10
2023-03-13T12:39:28.664Z,13.30
2023-03-13T12:42:15.632Z,9.40
2023-03-13T12:44:44.316Z,8.30
2023-03-13T12:47:31.220Z,9.00
2023-03-13T12:50:05.786Z,7.90
2023-03-13T12:52:43.008Z,7.80
2023-03-13T12:55:11.130Z,9.00
2023-03-13T12:58:18.726Z,9.30
2023-03-13T13:00:48.265Z,9.40
2023-03-13T13:03:35.958Z,13.90
2023-03-13T13:06:03.845Z,6.80
2023-03-13T13:08:39.612Z,9.60
2023-03-13T13:11:26.547Z,13.10
2023-03-13T13:13:54.583Z,10.50
2023-03-13T13:16:23.900Z,13.20
2023-03-13T13:18:52.004Z,15.20
2023-03-13T13:21:22.164Z,10.30
2023-03-13T13:23:54.097Z,14.90
2023-03-13T13:26:29.817Z,15.10
2023-03-13T13:28:59.329Z,13.10
2023-03-13T13:31:46.333Z,19.00
2023-03-13T13:34:35.989Z,16.20
2023-03-13T13:37:24.117Z,16.80
2023-03-13T13:39:53.687Z,14.70
2023-03-13T13:42:33.493Z,15.50
2023-03-13T13:45:01.528Z,11.30
2023-03-13T13:47:33.135Z,16.30
2023-03-13T13:50:02.153Z,12.60
2023-03-13T13:52:33.038Z,12.20
2023-03-13T13:55:38.666Z,10.30
2023-03-13T13:58:11.948Z,12.70
2023-03-13T14:00:47.860Z,11.40
2023-03-13T14:03:19.173Z,15.10
2023-03-13T14:05:47.237Z,15.50
2023-03-13T14:08:17.622Z,13.90
2023-03-13T14:10:45.123Z,16.00
2023-03-13T14:13:16.144Z,16.90
2023-03-13T14:15:46.713Z,14.40
2023-03-13T14:18:19.447Z,13.20
2023-03-13T14:20:49.188Z,12.90
2023-03-13T14:23:31.077Z,8.00
2023-03-13T14:25:58.228Z,10.20
2023-03-13T14:28:28.306Z,11.80
2023-03-13T14:30:57.114Z,10.40
2023-03-13T14:33:26.982Z,11.30
2023-03-13T14:36:08.624Z,12.20
2023-03-13T14:40:25.957Z,8.60
2023-03-13T14:42:54.699Z,11.20
2023-03-13T14:45:23.489Z,9.50
2023-03-13T14:47:51.920Z,9.40
2023-03-13T14:50:22.801Z,8.70
2023-03-13T14:52:54.999Z,8.80
2023-03-13T14:55:25.163Z,10.30
2023-03-13T14:57:56.567Z,11.80
2023-03-13T15:00:26.230Z,6.50
2023-03-13T15:03:22.385Z,7.00
2023-03-13T15:06:04.135Z,7.40
2023-03-13T15:08:41.665Z,6.80
2023-03-13T15:11:19.507Z,7.10
2023-03-13T15:13:53.042Z,5.80
2023-03-13T15:16:46.849Z,6.00
2023-03-13T15:19:48.511Z,13.80
2023-03-13T15:22:30.016Z,4.20
2023-03-13T15:27:57.048Z,4.20
2023-03-13T15:30:31.556Z,5.10
2023-03-13T15:33:01.666Z,4.10
2023-03-13T15:35:35.879Z,5.30
2023-03-13T15:39:43.532Z,4.10
2023-03-13T15:42:11.544Z,4.80
2023-03-13T15:55:21.093Z,8.80
2023-03-13T15:57:50.421Z,7.00
2023-03-13T16:00:21.018Z,5.20
2023-03-13T16:02:51.825Z,5.20
2023-03-13T16:05:48.220Z,8.30
2023-03-13T16:08:34.271Z,6.60
2023-03-13T16:11:09.290Z,7.10
2023-03-13T16:13:37.587Z,6.40
2023-03-13T16:16:30.601Z,7.00
2023-03-13T16:18:59.736Z,7.60
2023-03-13T16:21:29.746Z,6.40
2023-03-13T16:23:59.267Z,6.70
2023-03-13T16:26:29.262Z,5.40
2023-03-13T16:28:58.303Z,6.00
2023-03-13T16:31:28.365Z,6.10
2023-03-13T16:33:56.999Z,8.10
2023-03-13T16:36:27.521Z,6.40
2023-03-13T16:38:55.480Z,4.80
2023-03-13T16:41:24.814Z,7.00
2023-03-13T16:43:53.166Z,5.20
2023-03-13T16:46:23.135Z,7.20
2023-03-13T16:48:51.526Z,5.40
2023-03-13T16:51:21.364Z,6.90
2023-03-13T16:53:50.108Z,8.40
2023-03-13T16:56:58.324Z,10.00
2023-03-13T16:59:25.182Z,6.40
2023-03-13T17:01:56.468Z,7.50
2023-03-13T17:04:28.195Z,9.50
2023-03-13T17:06:57.284Z,7.40
2023-03-13T17:09:26.645Z,6.40
2023-03-13T17:11:56.818Z,10.00
2023-03-13T17:14:30.526Z,9.00
2023-03-13T17:16:57.672Z,9.80
2023-03-13T17:19:25.393Z,9.20
2023-03-13T17:21:52.946Z,8.40
2023-03-13T17:24:20.202Z,7.70
2023-03-13T17:26:47.355Z,11.30
2023-03-13T17:29:16.794Z,13.20
2023-03-13T17:31:45.258Z,12.60
2023-03-13T17:34:12.874Z,14.40
2023-03-13T17:36:47.457Z,12.70
2023-03-13T17:39:15.592Z,11.90
2023-03-13T17:41:42.723Z,15.90
2023-03-13T17:44:12.731Z,12.00
2023-03-13T17:52:27.567Z,9.30
2023-03-13T17:54:54.753Z,10.30
2023-03-13T17:57:24.240Z,6.80
2023-03-13T17:59:52.338Z,8.60
2023-03-13T18:02:19.343Z,6.20
2023-03-13T18:04:47.525Z,6.30
2023-03-13T18:07:14.418Z,5.90
2023-03-13T18:09:41.788Z,13.90
2023-03-13T18:12:10.657Z,9.70
2023-03-13T18:14:37.623Z,7.80
2023-03-13T18:17:06.946Z,6.60
2023-03-13T18:19:34.558Z,6.80
2023-03-13T18:22:01.534Z,7.90
2023-03-13T18:24:28.694Z,10.10
2023-03-13T18:26:55.804Z,7.70
2023-03-13T18:29:28.669Z,7.30
2023-03-13T18:31:58.264Z,9.00
2023-03-13T18:34:26.291Z,10.60
2023-03-13T18:36:53.880Z,9.70
2023-03-13T18:39:22.003Z,12.80
2023-03-13T18:41:49.184Z,12.00
2023-03-13T18:44:18.650Z,14.10
2023-03-13T18:46:45.837Z,9.20
2023-03-13T18:49:19.782Z,9.50
2023-03-13T18:51:47.418Z,10.50
2023-03-13T18:54:14.459Z,12.40
2023-03-13T18:56:44.065Z,8.40
2023-03-13T18:59:13.608Z,8.00
2023-03-13T19:01:40.522Z,10.50
2023-03-13T19:04:08.560Z,7.30
2023-03-13T19:06:37.900Z,8.40
2023-03-13T19:09:42.358Z,8.30
2023-03-13T19:12:07.307Z,10.20
2023-03-13T19:14:35.789Z,9.70
2023-03-13T19:17:13.113Z,7.70
2023-03-13T19:19:39.903Z,10.00
2023-03-13T19:22:12.387Z,6.50
2023-03-13T19:24:39.182Z,6.00
2023-03-13T19:27:06.236Z,9.20
2023-03-13T19:29:36.106Z,7.80
2023-03-13T19:32:08.003Z,8.20
2023-03-13T19:34:36.177Z,8.40
2023-03-13T19:37:02.821Z,9.30
2023-03-13T19:39:29.411Z,8.30
2023-03-13T19:41:58.260Z,7.40
2023-03-13T19:44:25.330Z,8.30
2023-03-13T19:46:54.034Z,7.50
2023-03-13T19:49:20.657Z,7.50
2023-03-13T19:51:47.625Z,7.50
2023-03-13T19:54:14.767Z,10.60
2023-03-13T19:56:43.312Z,7.20
2023-03-13T19:59:13.712Z,6.00
2023-03-13T20:01:40.757Z,7.40
2023-03-13T20:04:07.679Z,7.30
2023-03-13T20:06:35.038Z,7.00
2023-03-13T20:09:03.642Z,6.70
2023-03-13T20:11:30.556Z,6.40
2023-03-13T20:14:01.880Z,6.50
2023-03-13T20:16:33.738Z,5.90
2023-03-13T20:19:02.191Z,4.80
2023-03-13T20:21:32.769Z,7.00
2023-03-13T20:23:59.830Z,9.40
2023-03-13T20:26:27.291Z,6.20
2023-03-13T20:28:54.547Z,6.70
2023-03-13T20:31:23.104Z,6.00
2023-03-13T20:33:50.515Z,4.60
2023-03-13T20:36:20.304Z,4.30
2023-03-13T20:38:49.202Z,6.10
2023-03-13T20:41:16.719Z,5.80
2023-03-13T20:43:43.341Z,4.90
2023-03-13T20:46:10.358Z,4.50
2023-03-13T20:48:39.813Z,8.60
2023-03-13T20:51:10.291Z,6.50
2023-03-13T20:53:41.236Z,6.40
2023-03-13T20:56:10.968Z,5.80
2023-03-13T20:58:38.013Z,5.40
2023-03-13T21:01:05.424Z,6.20
2023-03-13T21:03:34.718Z,6.80
2023-03-13T21:06:08.519Z,5.00
2023-03-13T21:08:39.647Z,4.50
2023-03-13T21:11:18.886Z,6.80
2023-03-13T21:13:47.360Z,6.50
2023-03-13T21:16:17.977Z,7.80
2023-03-13T21:18:44.633Z,6.00
2023-03-13T21:21:17.531Z,6.00
2023-03-13T21:23:45.406Z,5.80
2023-03-13T21:26:13.864Z,5.60
2023-03-13T21:28:43.070Z,7.50
2023-03-13T21:31:11.698Z,6.30
2023-03-13T21:33:38.903Z,5.80
2023-03-13T21:36:06.976Z,5.50
2023-03-13T21:38:34.762Z,7.00
2023-03-13T21:41:07.784Z,5.80
2023-03-13T21:43:34.571Z,5.40
2023-03-13T21:46:03.354Z,5.70
2023-03-13T21:48:32.351Z,13.80
2023-03-13T21:51:00.699Z,6.70
2023-03-13T21:53:31.155Z,5.30
2023-03-13T21:55:58.064Z,5.60
2023-03-13T21:58:24.945Z,6.90
2023-03-13T22:00:55.252Z,4.90
2023-03-13T22:03:25.913Z,6.00
2023-03-13T22:05:52.474Z,4.90
2023-03-13T22:08:19.103Z,5.20
2023-03-13T22:10:49.642Z,7.90
2023-03-13T22:13:16.964Z,9.70
2023-03-13T22:15:46.212Z,5.20
2023-03-13T22:18:15.766Z,4.90
2023-03-13T22:20:42.923Z,7.40
2023-03-13T22:23:10.394Z,4.50
2023-03-13T22:25:37.971Z,5.90
2023-03-13T22:28:04.802Z,6.90
2023-03-13T22:30:31.499Z,5.70
2023-03-13T22:32:57.945Z,6.40
2023-03-13T22:35:27.020Z,7.70
2023-03-13T22:37:53.685Z,7.70
2023-03-13T22:40:20.337Z,7.90
2023-03-13T22:42:46.841Z,6.70
2023-03-13T22:45:13.770Z,5.80
2023-03-13T22:47:40.621Z,5.20
2023-03-13T22:50:09.081Z,5.70
2023-03-13T22:52:35.871Z,4.80
2023-03-13T22:55:02.719Z,3.80
2023-03-13T22:57:29.674Z,6.90
2023-03-13T22:59:58.635Z,5.90
2023-03-13T23:02:26.329Z,6.00
2023-03-13T23:04:57.353Z,5.30
2023-03-13T23:07:24.471Z,4.90
2023-03-13T23:09:50.997Z,8.20
2023-03-13T23:12:17.873Z,5.60
2023-03-13T23:14:44.587Z,6.10
2023-03-13T23:17:11.406Z,5.10
2023-03-13T23:19:38.107Z,6.50
2023-03-13T23:22:06.919Z,5.70
2023-03-13T23:24:33.629Z,3.90
2023-03-13T23:27:00.684Z,7.00
2023-03-13T23:29:31.321Z,5.00
2023-03-13T23:31:57.954Z,3.50
2023-03-13T23:34:28.649Z,5.60
2023-03-13T23:36:57.357Z,4.60
2023-03-13T23:39:28.290Z,6.30
2023-03-13T23:41:59.030Z,3.50
2023-03-13T23:44:34.588Z,2.10
2023-03-13T23:47:01.938Z,2.40
2023-03-13T23:49:31.231Z,3.70
2023-03-13T23:51:57.942Z,3.60
2023-03-13T23:54:25.147Z,4.90
2023-03-13T23:56:56.831Z,3.20
2023-03-13T23:59:28.756Z,3.20
